createdAt,value
2023-01-29T00:00:46.349Z,99557.59
2023-01-29T00:01:47.903Z,99553.00
2023-01-29T00:02:49.250Z,99551.59
2023-01-29T00:03:51.257Z,99551.59
2023-01-29T00:04:52.605Z,99550.78
2023-01-29T00:05:53.784Z,99550.34
2023-01-29T00:06:54.962Z,99554.38
2023-01-29T00:07:56.560Z,99550.75
2023-01-29T00:08:57.831Z,99559.38
2023-01-29T00:09:59.279Z,99558.00
2023-01-29T00:11:01.231Z,99552.78
2023-01-29T00:12:02.750Z,99558.97
2023-01-29T00:13:04.044Z,99557.00
2023-01-29T00:14:05.747Z,99549.78
2023-01-29T00:15:07.348Z,99553.59
2023-01-29T00:16:09.079Z,99546.78
2023-01-29T00:17:10.387Z,99550.19
2023-01-29T00:18:11.693Z,99544.16
2023-01-29T00:19:12.955Z,99546.78
2023-01-29T00:20:14.617Z,99545.19
2023-01-29T00:21:18.341Z,99549.38
2023-01-29T00:22:19.718Z,99547.56
2023-01-29T00:23:21.408Z,99559.81
2023-01-29T00:24:22.994Z,99555.41
2023-01-29T00:25:24.273Z,99553.00
2023-01-29T00:26:25.808Z,99550.63
2023-01-29T00:27:27.062Z,99544.97
2023-01-29T00:28:28.470Z,99552.78
2023-01-29T00:29:30.579Z,99553.97
2023-01-29T00:30:31.909Z,99551.16
2023-01-29T00:31:33.237Z,99550.97
2023-01-29T00:32:34.748Z,99549.38
2023-01-29T00:33:36.003Z,99552.38
2023-01-29T00:34:37.191Z,99547.41
2023-01-29T00:35:39.590Z,99544.00
2023-01-29T00:36:40.853Z,99544.00
2023-01-29T00:37:42.101Z,99546.38
2023-01-29T00:38:43.395Z,99544.56
2023-01-29T00:39:48.053Z,99541.16
2023-01-29T00:40:49.644Z,99547.19
2023-01-29T00:41:50.878Z,99544.16
2023-01-29T00:42:52.184Z,99545.75
2023-01-29T00:43:53.470Z,99546.78
2023-01-29T00:44:54.763Z,99550.41
2023-01-29T00:45:55.946Z,99547.00
2023-01-29T00:46:57.341Z,99545.19
2023-01-29T00:47:58.668Z,99552.78
2023-01-29T00:49:00.915Z,99552.00
2023-01-29T00:50:03.311Z,99550.97
2023-01-29T00:51:04.634Z,99548.19
2023-01-29T00:52:05.837Z,99550.97
2023-01-29T00:53:07.023Z,99555.59
2023-01-29T00:54:08.389Z,99555.00
2023-01-29T00:55:10.426Z,99550.63
2023-01-29T00:56:12.092Z,99553.84
2023-01-29T00:57:13.379Z,99550.84
2023-01-29T00:58:14.621Z,99546.03
2023-01-29T00:59:15.930Z,99554.41
2023-01-29T01:00:18.537Z,99551.22
2023-01-29T01:01:21.068Z,99560.03
2023-01-29T01:02:22.464Z,99556.84
2023-01-29T01:03:23.767Z,99552.66
2023-01-29T01:04:26.985Z,99548.44
2023-01-29T01:05:28.452Z,99552.44
2023-01-29T01:06:29.734Z,99555.63
2023-01-29T01:07:30.967Z,99545.19
2023-01-29T01:08:32.375Z,99551.19
2023-01-29T01:09:37.257Z,99547.19
2023-01-29T01:10:38.538Z,99551.59
2023-01-29T01:11:39.947Z,99546.19
2023-01-29T01:12:41.303Z,99548.19
2023-01-29T01:13:42.591Z,99540.81
2023-01-29T01:14:43.878Z,99545.41
2023-01-29T01:15:45.121Z,99552.44
2023-01-29T01:16:47.069Z,99552.38
2023-01-29T01:17:51.325Z,99552.38
2023-01-29T01:18:52.565Z,99547.59
2023-01-29T01:19:53.804Z,99545.41
2023-01-29T01:20:56.999Z,99539.41
2023-01-29T01:21:58.215Z,99538.59
2023-01-29T01:22:59.462Z,99540.63
2023-01-29T01:24:00.704Z,99541.44
2023-01-29T01:25:02.189Z,99533.59
2023-01-29T01:26:08.058Z,99543.81
2023-01-29T01:27:09.259Z,99537.59
2023-01-29T01:28:10.600Z,99544.81
2023-01-29T01:29:12.391Z,99538.03
2023-01-29T01:30:15.110Z,99541.22
2023-01-29T01:31:16.803Z,99538.81
2023-01-29T01:32:18.101Z,99543.41
2023-01-29T01:33:19.348Z,99540.81
2023-01-29T01:34:20.582Z,99552.66
2023-01-29T01:35:21.882Z,99554.91
2023-01-29T01:36:23.694Z,99551.06
2023-01-29T01:37:24.952Z,99552.69
2023-01-29T01:38:26.783Z,99554.91
2023-01-29T01:39:29.253Z,99547.66
2023-01-29T01:40:30.993Z,99552.47
2023-01-29T01:41:32.603Z,99550.06
2023-01-29T01:42:33.839Z,99553.84
2023-01-29T01:43:54.603Z,99545.63
2023-01-29T01:44:57.459Z,99543.03
2023-01-29T01:45:58.672Z,99549.47
2023-01-29T01:47:01.220Z,99547.66
2023-01-29T01:48:07.408Z,99547.66
2023-01-29T01:49:14.190Z,99544.88
2023-01-29T01:50:18.751Z,99552.28
2023-01-29T01:51:21.703Z,99547.25
2023-01-29T01:52:23.254Z,99545.28
2023-01-29T01:53:33.442Z,99544.06
2023-01-29T01:54:34.718Z,99546.47
2023-01-29T01:55:41.005Z,99545.88
2023-01-29T01:56:45.272Z,99547.25
2023-01-29T01:57:47.909Z,99539.66
2023-01-29T01:58:51.569Z,99536.47
2023-01-29T01:59:55.863Z,99540.06
2023-01-29T02:00:57.261Z,99544.03
2023-01-29T02:01:58.558Z,99538.81
2023-01-29T02:03:01.170Z,99541.25
2023-01-29T02:04:05.674Z,99540.06
2023-01-29T02:05:07.327Z,99545.28
2023-01-29T02:06:09.867Z,99543.47
2023-01-29T02:07:13.796Z,99539.25
2023-01-29T02:08:16.416Z,99538.69
2023-01-29T02:09:20.415Z,99541.06
2023-01-29T02:10:22.220Z,99539.09
2023-01-29T02:11:23.648Z,99548.09
2023-01-29T02:12:25.215Z,99549.91
2023-01-29T02:13:26.580Z,99545.50
2023-01-29T02:14:27.793Z,99548.88
2023-01-29T02:15:28.972Z,99549.09
2023-01-29T02:16:30.240Z,99550.13
2023-01-29T02:17:31.715Z,99541.69
2023-01-29T02:18:33.041Z,99549.94
2023-01-29T02:19:57.192Z,99552.34
2023-01-29T02:21:05.643Z,99542.69
2023-01-29T02:22:25.511Z,99546.09
2023-01-29T02:23:38.918Z,99548.72
2023-01-29T02:24:58.803Z,99554.53
2023-01-29T02:26:23.031Z,99550.53
2023-01-29T02:27:29.211Z,99550.31
2023-01-29T02:28:30.483Z,99551.50
2023-01-29T02:29:48.407Z,99552.28
2023-01-29T02:30:52.475Z,99546.47
2023-01-29T02:32:00.214Z,99547.88
2023-01-29T02:33:01.469Z,99539.47
2023-01-29T02:34:08.818Z,99545.72
2023-01-29T02:35:14.439Z,99544.91
2023-01-29T02:36:27.677Z,99542.91
2023-01-29T02:37:39.797Z,99541.72
2023-01-29T02:38:42.234Z,99544.91
2023-01-29T02:39:53.322Z,99536.91
2023-01-29T02:41:01.167Z,99540.31
2023-01-29T02:42:02.558Z,99542.53
2023-01-29T02:43:25.799Z,99551.34
2023-01-29T02:44:46.951Z,99539.69
2023-01-29T02:45:53.798Z,99545.53
2023-01-29T02:46:55.118Z,99541.09
2023-01-29T02:47:58.858Z,99541.31
2023-01-29T02:49:10.012Z,99541.31
2023-01-29T02:50:29.980Z,99537.28
2023-01-29T02:51:38.637Z,99541.31
2023-01-29T02:52:39.805Z,99541.50
2023-01-29T02:53:46.164Z,99537.50
2023-01-29T02:54:47.420Z,99533.69
2023-01-29T02:55:52.271Z,99528.91
2023-01-29T02:57:01.029Z,99529.72
2023-01-29T02:58:07.562Z,99536.13
2023-01-29T02:59:12.637Z,99535.72
2023-01-29T03:00:14.821Z,99540.31
2023-01-29T03:01:22.850Z,99533.91
2023-01-29T03:02:28.931Z,99545.13
2023-01-29T03:03:38.023Z,99542.31
2023-01-29T03:04:42.212Z,99545.94
2023-01-29T03:05:46.415Z,99546.13
2023-01-29T03:06:54.120Z,99544.53
2023-01-29T03:07:58.915Z,99542.94
2023-01-29T03:09:13.128Z,99540.13
2023-01-29T03:10:27.867Z,99536.94
2023-01-29T03:11:35.019Z,99536.16
2023-01-29T03:12:38.952Z,99535.53
2023-01-29T03:13:42.643Z,99538.34
2023-01-29T03:14:46.559Z,99539.56
2023-01-29T03:15:49.501Z,99537.56
2023-01-29T03:17:06.261Z,99529.13
2023-01-29T03:18:26.715Z,99529.53
2023-01-29T03:19:38.612Z,99531.38
2023-01-29T03:20:51.691Z,99539.19
2023-01-29T03:21:56.434Z,99539.19
2023-01-29T03:23:00.795Z,99537.16
2023-01-29T03:24:03.867Z,99535.97
2023-01-29T03:25:07.959Z,99544.34
2023-01-29T03:26:11.467Z,99545.16
2023-01-29T03:27:15.076Z,99532.94
2023-01-29T03:28:21.324Z,99540.16
2023-01-29T03:29:25.585Z,99539.16
2023-01-29T03:30:30.487Z,99540.97
2023-01-29T03:31:41.171Z,99544.34
2023-01-29T03:32:43.108Z,99538.94
2023-01-29T03:33:52.405Z,99536.75
2023-01-29T03:34:57.071Z,99537.56
2023-01-29T03:36:06.283Z,99535.97
2023-01-29T03:37:11.241Z,99542.19
2023-01-29T03:38:12.983Z,99531.75
2023-01-29T03:39:15.163Z,99539.19
2023-01-29T03:40:18.211Z,99532.56
2023-01-29T03:41:22.495Z,99533.16
2023-01-29T03:42:27.118Z,99529.38
2023-01-29T03:43:28.358Z,99535.19
2023-01-29T03:44:35.354Z,99537.41
2023-01-29T03:45:54.381Z,99536.56
2023-01-29T03:46:58.449Z,99544.19
2023-01-29T03:48:02.678Z,99536.16
2023-01-29T03:49:21.410Z,99534.75
2023-01-29T03:50:28.852Z,99540.97
2023-01-29T03:51:34.052Z,99542.97
2023-01-29T03:52:38.652Z,99540.81
2023-01-29T03:53:46.990Z,99542.22
2023-01-29T03:54:54.087Z,99538.41
2023-01-29T03:55:59.847Z,99538.81
2023-01-29T03:57:07.965Z,99537.41
2023-01-29T03:58:12.606Z,99538.00
2023-01-29T03:59:20.926Z,99533.59
2023-01-29T04:00:48.485Z,99533.59
2023-01-29T04:01:51.086Z,99531.38
2023-01-29T04:03:10.735Z,99542.22
2023-01-29T04:04:16.805Z,99543.00
2023-01-29T04:05:24.262Z,99538.00
2023-01-29T04:06:40.739Z,99544.81
2023-01-29T04:07:44.894Z,99536.56
2023-01-29T04:08:53.451Z,99539.19
2023-01-29T04:09:57.103Z,99543.00
2023-01-29T04:10:59.857Z,99538.19
2023-01-29T04:12:07.090Z,99542.41
2023-01-29T04:13:12.740Z,99539.00
2023-01-29T04:14:16.556Z,99538.22
2023-01-29T04:15:19.466Z,99532.41
2023-01-29T04:16:26.518Z,99538.00
2023-01-29T04:17:41.887Z,99542.81
2023-01-29T04:18:48.858Z,99533.41
2023-01-29T04:19:51.060Z,99542.03
2023-01-29T04:20:53.274Z,99539.59
2023-01-29T04:22:01.428Z,99542.41
2023-01-29T04:23:06.150Z,99540.41
2023-01-29T04:24:07.774Z,99542.78
2023-01-29T04:25:13.170Z,99548.78
2023-01-29T04:26:17.301Z,99545.59
2023-01-29T04:27:18.592Z,99543.00
2023-01-29T04:28:25.839Z,99543.22
2023-01-29T04:29:29.989Z,99539.00
2023-01-29T04:30:46.287Z,99537.59
2023-01-29T04:31:54.401Z,99543.22
2023-01-29T04:33:14.069Z,99543.41
2023-01-29T04:34:23.382Z,99550.63
2023-01-29T04:35:43.117Z,99550.84
2023-01-29T04:36:58.921Z,99547.41
2023-01-29T04:38:21.587Z,99548.63
2023-01-29T04:39:26.567Z,99548.41
2023-01-29T04:40:52.220Z,99548.63
2023-01-29T04:42:02.480Z,99547.03
2023-01-29T04:43:08.824Z,99552.03
2023-01-29T04:44:18.809Z,99547.84
2023-01-29T04:45:40.354Z,99554.06
2023-01-29T04:46:47.959Z,99546.00
2023-01-29T04:48:01.830Z,99549.59
2023-01-29T04:49:05.875Z,99542.59
2023-01-29T04:50:22.264Z,99547.00
2023-01-29T04:51:23.506Z,99542.03
2023-01-29T04:52:33.980Z,99543.81
2023-01-29T04:53:40.325Z,99543.59
2023-01-29T04:54:44.302Z,99546.81
2023-01-29T04:55:49.657Z,99548.44
2023-01-29T04:56:54.977Z,99547.41
2023-01-29T04:58:07.243Z,99550.59
2023-01-29T04:59:12.082Z,99545.63
2023-01-29T05:00:17.803Z,99551.84
2023-01-29T05:01:19.839Z,99551.44
2023-01-29T05:02:22.416Z,99552.22
2023-01-29T05:03:25.643Z,99548.63
2023-01-29T05:04:27.833Z,99548.84
2023-01-29T05:05:30.412Z,99553.25
2023-01-29T05:06:32.142Z,99545.84
2023-01-29T05:07:35.520Z,99543.22
2023-01-29T05:08:37.724Z,99545.03
2023-01-29T05:09:39.202Z,99544.25
2023-01-29T05:10:40.796Z,99545.84
2023-01-29T05:11:42.846Z,99538.25
2023-01-29T05:12:47.518Z,99534.63
2023-01-29T05:13:48.976Z,99536.44
2023-01-29T05:14:51.420Z,99543.81
2023-01-29T05:16:08.085Z,99538.59
2023-01-29T05:17:14.176Z,99540.41
2023-01-29T05:18:15.522Z,99541.81
2023-01-29T05:19:17.164Z,99544.44
2023-01-29T05:20:18.716Z,99539.41
2023-01-29T05:21:20.809Z,99544.22
2023-01-29T05:22:22.355Z,99546.25
2023-01-29T05:23:23.703Z,99550.66
2023-01-29T05:24:26.036Z,99555.66
2023-01-29T05:25:28.845Z,99556.06
2023-01-29T05:26:30.148Z,99559.84
2023-01-29T05:27:34.804Z,99558.06
2023-01-29T05:28:36.058Z,99562.25
2023-01-29T05:29:37.427Z,99559.88
2023-01-29T05:30:39.332Z,99563.44
2023-01-29T05:31:43.645Z,99556.66
2023-01-29T05:32:44.992Z,99557.06
2023-01-29T05:33:46.209Z,99553.84
2023-01-29T05:34:47.429Z,99554.03
2023-01-29T05:35:48.923Z,99549.44
2023-01-29T05:36:50.312Z,99544.22
2023-01-29T05:37:51.663Z,99549.22
2023-01-29T05:38:52.886Z,99538.59
2023-01-29T05:39:54.140Z,99541.03
2023-01-29T05:40:58.022Z,99542.22
2023-01-29T05:41:59.255Z,99537.41
2023-01-29T05:43:00.494Z,99538.25
2023-01-29T05:44:01.851Z,99528.41
2023-01-29T05:45:03.321Z,99525.00
2023-01-29T05:46:04.729Z,99516.78
2023-01-29T05:47:05.929Z,99507.56
2023-01-29T05:48:07.162Z,99508.97
2023-01-29T05:49:08.346Z,99504.56
2023-01-29T05:50:09.874Z,99508.19
2023-01-29T05:51:11.178Z,99504.19
2023-01-29T05:52:12.436Z,99498.59
2023-01-29T05:53:13.672Z,99502.19
2023-01-29T05:54:15.007Z,99496.78
2023-01-29T05:55:16.255Z,99505.59
2023-01-29T05:56:17.678Z,99504.97
2023-01-29T05:57:18.925Z,99509.22
2023-01-29T05:58:20.176Z,99504.00
2023-01-29T05:59:21.453Z,99507.59
2023-01-29T06:00:22.863Z,99513.19
2023-01-29T06:01:25.081Z,99520.00
2023-01-29T06:02:28.934Z,99517.38
2023-01-29T06:03:30.304Z,99516.56
2023-01-29T06:04:31.663Z,99514.81
2023-01-29T06:05:32.912Z,99516.59
2023-01-29T06:06:34.151Z,99508.78
2023-01-29T06:07:35.478Z,99511.81
2023-01-29T06:08:36.968Z,99512.63
2023-01-29T06:09:38.285Z,99509.59
2023-01-29T06:10:39.584Z,99517.81
2023-01-29T06:11:41.027Z,99520.22
2023-01-29T06:12:42.962Z,99526.22
2023-01-29T06:13:44.998Z,99523.63
2023-01-29T06:14:46.194Z,99526.03
2023-01-29T06:15:53.611Z,99519.00
2023-01-29T06:16:54.883Z,99517.81
2023-01-29T06:17:56.606Z,99520.19
2023-01-29T06:18:57.958Z,99524.78
2023-01-29T06:19:59.176Z,99525.81
2023-01-29T06:21:01.094Z,99526.41
2023-01-29T06:22:02.373Z,99525.00
2023-01-29T06:23:03.730Z,99530.81
2023-01-29T06:24:05.178Z,99532.41
2023-01-29T06:25:06.973Z,99522.59
2023-01-29T06:26:12.470Z,99521.63
2023-01-29T06:27:13.759Z,99523.41
2023-01-29T06:28:15.262Z,99520.63
2023-01-29T06:29:16.495Z,99523.44
2023-01-29T06:30:18.249Z,99522.44
2023-01-29T06:31:36.969Z,99524.03
2023-01-29T06:32:38.866Z,99521.63
2023-01-29T06:33:40.114Z,99527.44
2023-01-29T06:34:41.378Z,99524.44
2023-01-29T06:35:42.577Z,99517.63
2023-01-29T06:36:43.780Z,99522.84
2023-01-29T06:37:45.039Z,99523.63
2023-01-29T06:38:46.334Z,99524.44
2023-01-29T06:39:47.577Z,99518.78
2023-01-29T06:40:48.865Z,99515.00
2023-01-29T06:41:50.098Z,99524.22
2023-01-29T06:42:51.422Z,99527.63
2023-01-29T06:43:52.972Z,99516.63
2023-01-29T06:44:55.000Z,99517.81
2023-01-29T06:45:57.316Z,99518.03
2023-01-29T06:46:58.547Z,99520.22
2023-01-29T06:48:01.401Z,99522.63
2023-01-29T06:49:03.229Z,99525.00
2023-01-29T06:50:04.662Z,99524.84
2023-01-29T06:51:06.713Z,99531.03
2023-01-29T06:52:07.890Z,99520.81
2023-01-29T06:53:09.207Z,99530.44
2023-01-29T06:54:10.863Z,99528.63
2023-01-29T06:55:12.103Z,99531.44
2023-01-29T06:56:13.349Z,99536.03
2023-01-29T06:57:14.604Z,99531.84
2023-01-29T06:58:15.902Z,99531.84
2023-01-29T06:59:17.191Z,99536.03
2023-01-29T07:00:18.861Z,99541.66
2023-01-29T07:01:34.746Z,99537.44
2023-01-29T07:02:36.773Z,99534.03
2023-01-29T07:03:38.229Z,99537.44
2023-01-29T07:04:39.462Z,99540.06
2023-01-29T07:05:40.779Z,99534.84
2023-01-29T07:06:42.070Z,99540.63
2023-01-29T07:07:43.358Z,99540.44
2023-01-29T07:08:44.671Z,99537.25
2023-01-29T07:09:45.861Z,99538.81
2023-01-29T07:10:47.062Z,99534.81
2023-01-29T07:11:48.395Z,99530.41
2023-01-29T07:12:49.632Z,99535.63
2023-01-29T07:13:50.839Z,99537.63
2023-01-29T07:14:52.073Z,99544.22
2023-01-29T07:15:53.342Z,99542.22
2023-01-29T07:16:54.806Z,99543.25
2023-01-29T07:18:02.759Z,99534.41
2023-01-29T07:19:04.025Z,99545.03
2023-01-29T07:20:06.157Z,99539.63
2023-01-29T07:21:07.661Z,99545.44
2023-01-29T07:22:08.924Z,99548.84
2023-01-29T07:23:11.708Z,99543.44
2023-01-29T07:24:12.990Z,99545.84
2023-01-29T07:25:14.239Z,99547.44
2023-01-29T07:26:15.736Z,99545.66
2023-01-29T07:27:17.030Z,99554.47
2023-01-29T07:28:18.620Z,99553.84
2023-01-29T07:29:19.868Z,99562.47
2023-01-29T07:30:21.345Z,99557.06
2023-01-29T07:31:22.743Z,99561.25
2023-01-29T07:32:24.080Z,99561.88
2023-01-29T07:33:25.692Z,99553.63
2023-01-29T07:34:26.957Z,99561.84
2023-01-29T07:35:28.179Z,99559.84
2023-01-29T07:36:29.481Z,99560.66
2023-01-29T07:37:30.719Z,99562.25
2023-01-29T07:38:31.963Z,99563.88
2023-01-29T07:39:33.275Z,99555.84
2023-01-29T07:40:34.594Z,99566.84
2023-01-29T07:41:35.814Z,99565.44
2023-01-29T07:42:45.101Z,99567.25
2023-01-29T07:43:46.315Z,99561.03
2023-01-29T07:44:47.573Z,99566.84
2023-01-29T07:45:48.983Z,99562.03
2023-01-29T07:46:50.265Z,99565.22
2023-01-29T07:47:55.250Z,99564.25
2023-01-29T07:48:59.483Z,99565.44
2023-01-29T07:50:00.824Z,99569.06
2023-01-29T07:51:02.054Z,99566.22
2023-01-29T07:52:03.487Z,99572.25
2023-01-29T07:53:04.992Z,99573.66
2023-01-29T07:54:06.216Z,99581.06
2023-01-29T07:55:07.635Z,99573.84
2023-01-29T07:56:08.887Z,99577.25
2023-01-29T07:57:10.127Z,99578.66
2023-01-29T07:58:11.446Z,99574.84
2023-01-29T07:59:13.098Z,99576.22
2023-01-29T08:00:14.872Z,99579.47
2023-01-29T08:01:16.407Z,99572.22
2023-01-29T08:02:17.906Z,99574.22
2023-01-29T08:03:19.492Z,99571.63
2023-01-29T08:04:20.863Z,99579.22
2023-01-29T08:05:22.057Z,99574.19
2023-01-29T08:06:23.230Z,99580.81
2023-01-29T08:07:24.488Z,99576.63
2023-01-29T08:08:25.961Z,99577.41
2023-01-29T08:09:27.161Z,99580.59
2023-01-29T08:10:28.537Z,99584.00
2023-01-29T08:11:29.805Z,99583.03
2023-01-29T08:12:31.032Z,99586.00
2023-01-29T08:13:32.563Z,99584.19
2023-01-29T08:14:33.807Z,99586.78
2023-01-29T08:15:37.189Z,99587.41
2023-01-29T08:16:40.257Z,99587.81
2023-01-29T08:19:02.890Z,99591.03
2023-01-29T08:20:07.459Z,99589.81
2023-01-29T08:21:09.436Z,99595.41
2023-01-29T08:22:10.672Z,99594.81
2023-01-29T08:23:13.785Z,99588.97
2023-01-29T08:24:15.095Z,99592.81
2023-01-29T08:25:16.331Z,99595.19
2023-01-29T08:26:17.555Z,99602.63
2023-01-29T08:27:18.839Z,99593.56
2023-01-29T08:28:20.258Z,99596.81
2023-01-29T08:29:21.572Z,99591.03
2023-01-29T08:30:22.847Z,99594.63
2023-01-29T08:31:24.215Z,99587.59
2023-01-29T08:32:25.444Z,99595.22
2023-01-29T08:34:48.071Z,99597.44
2023-01-29T08:35:50.143Z,99607.66
2023-01-29T08:36:51.439Z,99604.63
2023-01-29T08:37:56.457Z,99605.44
2023-01-29T08:38:57.742Z,99598.81
2023-01-29T08:39:58.936Z,99607.03
2023-01-29T08:41:00.181Z,99598.22
2023-01-29T08:42:01.429Z,99601.63
2023-01-29T08:43:06.037Z,99596.25
2023-01-29T08:44:08.248Z,99597.22
2023-01-29T08:45:09.745Z,99600.81
2023-01-29T08:46:11.044Z,99599.78
2023-01-29T08:47:12.322Z,99603.59
2023-01-29T08:48:13.526Z,99603.78
2023-01-29T08:49:14.804Z,99603.38
2023-01-29T08:50:17.219Z,99608.16
2023-01-29T08:51:18.838Z,99607.75
2023-01-29T08:52:20.070Z,99600.53
2023-01-29T08:53:21.285Z,99601.72
2023-01-29T08:54:23.243Z,99607.34
2023-01-29T08:55:25.059Z,99604.94
2023-01-29T08:56:26.296Z,99595.09
2023-01-29T08:57:27.550Z,99593.66
2023-01-29T08:58:28.790Z,99602.25
2023-01-29T08:59:29.988Z,99598.44
2023-01-29T09:00:31.811Z,99601.22
2023-01-29T09:01:33.073Z,99601.59
2023-01-29T09:02:34.551Z,99606.81
2023-01-29T09:03:35.879Z,99605.38
2023-01-29T09:04:37.117Z,99607.97
2023-01-29T09:05:39.133Z,99602.34
2023-01-29T09:06:40.419Z,99609.16
2023-01-29T09:07:41.663Z,99613.97
2023-01-29T09:08:42.855Z,99613.19
2023-01-29T09:09:44.169Z,99610.56
2023-01-29T09:10:49.886Z,99610.75
2023-01-29T09:11:53.893Z,99613.53
2023-01-29T09:12:55.146Z,99614.09
2023-01-29T09:13:56.384Z,99618.53
2023-01-29T09:14:57.638Z,99617.31
2023-01-29T09:15:59.711Z,99613.69
2023-01-29T09:17:00.960Z,99615.53
2023-01-29T09:18:02.890Z,99615.81
2023-01-29T09:19:04.149Z,99613.97
2023-01-29T09:20:05.630Z,99618.41
2023-01-29T09:21:06.818Z,99613.19
2023-01-29T09:22:09.046Z,99618.75
2023-01-29T09:23:11.615Z,99621.56
2023-01-29T09:24:12.904Z,99616.31
2023-01-29T09:25:14.628Z,99622.53
2023-01-29T09:26:16.327Z,99625.78
2023-01-29T09:27:17.521Z,99625.16
2023-01-29T09:28:18.794Z,99629.59
2023-01-29T09:29:20.146Z,99624.34
2023-01-29T09:30:21.426Z,99627.53
2023-01-29T09:31:22.956Z,99625.97
2023-01-29T09:32:52.081Z,99625.56
2023-01-29T09:33:45.692Z,99625.56
2023-01-29T09:34:46.940Z,99623.34
2023-01-29T09:35:48.229Z,99620.91
2023-01-29T09:36:49.536Z,99616.88
2023-01-29T09:37:51.117Z,99610.03
2023-01-29T09:38:52.350Z,99603.97
2023-01-29T09:39:53.597Z,99600.50
2023-01-29T09:41:00.132Z,99596.09
2023-01-29T09:42:21.397Z,99599.56
2023-01-29T09:43:25.972Z,99595.69
2023-01-29T09:44:30.011Z,99594.44
2023-01-29T09:45:31.340Z,99591.59
2023-01-29T09:46:39.910Z,99584.94
2023-01-29T09:47:41.332Z,99583.53
2023-01-29T09:48:44.060Z,99578.91
2023-01-29T09:49:47.263Z,99572.19
2023-01-29T09:50:51.339Z,99571.09
2023-01-29T09:51:58.809Z,99569.88
2023-01-29T09:53:20.336Z,99567.03
2023-01-29T09:54:24.607Z,99563.94
2023-01-29T09:55:31.371Z,99559.44
2023-01-29T09:56:32.644Z,99554.22
2023-01-29T09:57:48.170Z,99550.97
2023-01-29T09:58:49.496Z,99554.66
2023-01-29T09:59:50.793Z,99544.94
2023-01-29T10:01:00.284Z,99541.00
2023-01-29T10:02:19.270Z,99543.53
2023-01-29T10:03:20.589Z,99534.03
2023-01-29T10:04:37.382Z,99541.22
2023-01-29T10:05:44.426Z,99544.19
2023-01-29T10:06:55.005Z,99544.97
2023-01-29T10:08:06.558Z,99548.22
2023-01-29T10:09:07.773Z,99541.81
2023-01-29T10:10:23.484Z,99554.59
2023-01-29T10:11:43.743Z,99557.91
2023-01-29T10:13:00.264Z,99558.69
2023-01-29T10:14:01.467Z,99546.19
2023-01-29T10:15:02.700Z,99546.31
2023-01-29T10:16:22.478Z,99541.53
2023-01-29T10:17:38.823Z,99541.53
2023-01-29T10:18:43.128Z,99541.75
2023-01-29T10:19:57.388Z,99549.25
2023-01-29T10:21:04.754Z,99554.25
2023-01-29T10:22:17.350Z,99552.22
2023-01-29T10:23:21.592Z,99562.16
2023-01-29T10:24:31.982Z,99558.53
2023-01-29T10:25:36.640Z,99552.84
2023-01-29T10:26:38.140Z,99550.22
2023-01-29T10:27:41.013Z,99555.09
2023-01-29T10:28:43.727Z,99550.97
2023-01-29T10:29:47.195Z,99547.78
2023-01-29T10:30:50.123Z,99545.59
2023-01-29T10:31:58.708Z,99546.75
2023-01-29T10:33:03.764Z,99544.16
2023-01-29T10:34:10.547Z,99547.47
2023-01-29T10:35:22.840Z,99545.00
2023-01-29T10:36:32.051Z,99545.56
2023-01-29T10:37:40.476Z,99548.47
2023-01-29T10:38:41.788Z,99548.28
2023-01-29T10:39:43.065Z,99553.28
2023-01-29T10:40:49.335Z,99550.44
2023-01-29T10:42:09.383Z,99561.38
2023-01-29T10:43:21.916Z,99560.22
2023-01-29T10:44:31.599Z,99567.63
2023-01-29T10:46:05.526Z,99570.91
2023-01-29T10:47:25.614Z,99557.59
2023-01-29T10:48:41.992Z,99554.66
2023-01-29T10:49:54.107Z,99549.63
2023-01-29T10:51:01.685Z,99551.59
2023-01-29T10:52:02.916Z,99542.56
2023-01-29T10:53:23.284Z,99549.63
2023-01-29T10:54:36.870Z,99547.91
2023-01-29T10:55:56.548Z,99555.78
2023-01-29T10:57:18.167Z,99546.31
2023-01-29T10:58:27.147Z,99555.22
2023-01-29T10:59:37.118Z,99547.94
2023-01-29T11:00:39.836Z,99558.78
2023-01-29T11:01:41.172Z,99548.16
2023-01-29T11:02:46.015Z,99550.13
2023-01-29T11:03:55.857Z,99553.41
2023-01-29T11:04:57.131Z,99556.38
2023-01-29T11:06:10.325Z,99557.41
2023-01-29T11:07:12.679Z,99559.31
2023-01-29T11:08:16.191Z,99555.22
2023-01-29T11:09:28.190Z,99546.56
2023-01-29T11:10:32.358Z,99558.13
2023-01-29T11:11:33.626Z,99553.13
2023-01-29T11:12:36.040Z,99552.09
2023-01-29T11:13:40.393Z,99547.44
2023-01-29T11:14:47.561Z,99549.13
2023-01-29T11:15:51.554Z,99550.72
2023-01-29T11:16:52.840Z,99542.44
2023-01-29T11:18:07.572Z,99537.84
2023-01-29T11:19:08.995Z,99540.84
2023-01-29T11:20:26.220Z,99532.19
2023-01-29T11:21:28.582Z,99524.22
2023-01-29T11:22:30.144Z,99519.41
2023-01-29T11:23:32.534Z,99519.41
2023-01-29T11:24:33.746Z,99514.75
2023-01-29T11:25:36.003Z,99504.88
2023-01-29T11:26:39.200Z,99512.25
2023-01-29T11:27:44.734Z,99506.22
2023-01-29T11:28:50.166Z,99506.09
2023-01-29T11:29:52.481Z,99499.03
2023-01-29T11:30:55.298Z,99499.50
2023-01-29T11:32:01.032Z,99499.63
2023-01-29T11:33:07.267Z,99494.75
2023-01-29T11:34:21.395Z,99496.91
2023-01-29T11:35:23.988Z,99493.72
2023-01-29T11:36:31.412Z,99494.41
2023-01-29T11:37:39.790Z,99496.53
2023-01-29T11:38:41.152Z,99497.25
2023-01-29T11:39:46.066Z,99495.31
2023-01-29T11:40:47.367Z,99496.47
2023-01-29T11:41:48.635Z,99495.00
2023-01-29T11:42:50.418Z,99499.88
2023-01-29T11:43:51.733Z,99502.72
2023-01-29T11:44:52.923Z,99496.22
2023-01-29T11:45:55.925Z,99496.59
2023-01-29T11:47:08.153Z,99498.53
2023-01-29T11:48:14.933Z,99500.69
2023-01-29T11:49:22.351Z,99497.63
2023-01-29T11:50:25.509Z,99492.03
2023-01-29T11:51:28.518Z,99495.00
2023-01-29T11:52:37.641Z,99496.59
2023-01-29T11:53:43.801Z,99491.59
2023-01-29T11:54:48.148Z,99495.22
2023-01-29T11:55:51.051Z,99489.53
2023-01-29T11:56:52.578Z,99485.31
2023-01-29T11:58:03.435Z,99484.28
2023-01-29T11:59:04.818Z,99487.28
2023-01-29T12:00:07.654Z,99474.94
2023-01-29T12:01:11.999Z,99476.63
2023-01-29T12:02:45.900Z,99471.75
2023-01-29T12:03:51.525Z,99466.75
2023-01-29T12:04:54.803Z,99464.81
2023-01-29T12:06:00.920Z,99460.38
2023-01-29T12:07:02.237Z,99455.50
2023-01-29T12:08:03.571Z,99456.84
2023-01-29T12:09:09.731Z,99458.00
2023-01-29T12:10:31.098Z,99452.88
2023-01-29T12:11:33.495Z,99451.84
2023-01-29T12:12:57.527Z,99447.28
2023-01-29T12:14:00.037Z,99438.75
2023-01-29T12:15:06.498Z,99445.22
2023-01-29T12:16:26.005Z,99437.06
2023-01-29T12:17:30.664Z,99435.56
2023-01-29T12:18:35.047Z,99433.84
2023-01-29T12:19:40.407Z,99432.84
2023-01-29T12:21:04.763Z,99432.06
2023-01-29T12:22:05.962Z,99431.03
2023-01-29T12:23:12.947Z,99419.28
2023-01-29T12:24:25.022Z,99423.41
2023-01-29T12:25:41.132Z,99423.75
2023-01-29T12:26:57.861Z,99415.56
2023-01-29T12:28:01.832Z,99417.59
2023-01-29T12:29:16.654Z,99407.03
2023-01-29T12:30:18.328Z,99417.03
2023-01-29T12:31:29.185Z,99411.00
2023-01-29T12:32:30.411Z,99399.28
2023-01-29T12:33:52.869Z,99403.72
2023-01-29T12:35:06.954Z,99398.25
2023-01-29T12:36:19.063Z,99391.53
2023-01-29T12:37:36.917Z,99397.69
2023-01-29T12:38:38.173Z,99391.00
2023-01-29T12:39:39.423Z,99389.03
2023-01-29T12:40:43.393Z,99383.13
2023-01-29T12:41:47.397Z,99382.19